METAR Formatted Surface Weather Observation
Issued by NWS Corpus Christi, TX

Home | Current Version | Previous Version | Text Only | Print | Product List | Glossary On
Versions: 1
SAUS44 KCRP 250152
METAR KVCT 250151Z 12006KT 10SM OVC070 19/16 A3009 RMK AO2 SLP188
T01940161 is the U.S. government's official web portal to all federal, state and local government web resources and services.